This is the latest recevied weather packets stored in our database for station/object Kirchdorf. If no packets are shown the sender has not sent any weather packets the latest 1 day(s).
| Time | Temp. | Humidity | Pressure | Rain* | Wind** | Luminosity | Snow |
|---|---|---|---|---|---|---|---|
| 1777977131 | 18.89° C | 63% | 1007.5 hPa | 0 mm | 1.79 m/s, 260° | - | - |
| 1777975332 | 17.78° C | 61% | 1007.7 hPa | 0 mm | 1.34 m/s, 0° | - | - |
| 1777973532 | 18.89° C | 62% | 1007.8 hPa | 0 mm | 1.34 m/s, 276° | - | - |
| 1777971732 | 18.33° C | 69% | 1008.1 hPa | 0 mm | 1.79 m/s, 297° | - | - |
| 1777969931 | 17.22° C | 70% | 1008.5 hPa | 0 mm | 2.24 m/s, 242° | - | - |
| 1777968130 | 14.44° C | 78% | 1008.6 hPa | 0 mm | 0.89 m/s, 238° | - | - |
| 1777966330 | 14.44° C | 78% | 1008.8 hPa | 0 mm | 1.34 m/s, 214° | - | - |
| 1777964532 | 13.33° C | 82% | 1009.1 hPa | 0 mm | 1.34 m/s, 111° | - | - |
| 1777962731 | 11.67° C | 88% | 1009.4 hPa | 0 mm | 2.24 m/s, 182° | - | - |
| 1777960932 | 10.56° C | 91% | 1009.5 hPa | 0 mm | 2.68 m/s, 192° | - | - |
| 1777959131 | 10° C | 94% | 1009.4 hPa | 0 mm | 1.79 m/s, 149° | - | - |
| 1777957331 | 7.78° C | 95% | 1009.5 hPa | 0 mm | 0 m/s | - | - |
| 1777955531 | 7.22° C | 95% | 1009.6 hPa | 0 mm | 1.34 m/s, 173° | - | - |
| 1777953731 | 6.67° C | 94% | 1009.8 hPa | 0 mm | 0.45 m/s, 185° | - | - |
| 1777951931 | 7.22° C | 94% | 1009.9 hPa | 0 mm | 0.89 m/s, 178° | - | - |
| 1777950133 | 7.22° C | 94% | 1010.1 hPa | 0 mm | 0.45 m/s, 178° | - | - |
| 1777948331 | 7.22° C | 93% | 1010.5 hPa | 0 mm | 1.34 m/s, 178° | - | - |
| 1777946531 | 7.78° C | 93% | 1010.8 hPa | 0 mm | 1.79 m/s, 167° | - | - |
| 1777944731 | 8.33° C | 91% | 1011.1 hPa | 0 mm | 0.45 m/s, 232° | - | - |
| 1777942931 | 8.89° C | 89% | 1011.1 hPa | 0 mm | 1.34 m/s, 232° | - | - |
| 1777941128 | 9.44° C | 89% | 1011.3 hPa | 0 mm | 1.34 m/s, 197° | - | - |
| 1777939330 | 9.44° C | 90% | 1011.5 hPa | 0 mm | 1.34 m/s, 173° | - | - |
* Rain since midnight (hover to see other rain measurements)
** Current wind speed in m/s (hover to see current wind gust speed)